Cone, Michigan
Current Conditions -  °F | °C
As of 10:53 PM on Monday 22 Dec 2014 (Local Time) from KARB Reporting Station
Light Rain Light Rain  
Wind Chill: 30°   Ceiling: 4900
Heat Index: 37°   Visibility: 6mi
Dew Point: 33°   Wind: 10mph
Humidity: 86%   Direction: 80°E
Pressure: 29.84"   Gusts: NA
Location:  42.0828°N, 83.683°W
Report Text: KARB 230353Z AUTO 08009KT 6SM -RA BR SCT042 BKN049 OVC090 03/01 A2984 RMK AO2 UPB13E27RAB27 SLP112 P0000 T00280006
Loading
Personal Weather Stations






























Interactive Weather Map New forecast layout! Learn more

10-Day Weather Forecast

Advertisements
Track Severe Weather on mobile